Vinegar Bend, Alabama
Current Conditions -  °F | °C
As of 3:56 PM on Wednesday 22 Oct 2014 (Local Time) from KMOB Reporting Station
Clear Clear  
Wind Chill: 77°   Ceiling: Unl
Heat Index: 78°   Visibility: 10mi
Dew Point: 51°   Wind: 10mph
Humidity: 40%   Direction: 30°NNE
Pressure: 30.03"   Gusts: NA
Location:  31.26°N, 88.34°W
Report Text: KMOB 222056Z 03009KT 10SM CLR 25/11 A3003 RMK AO2 SLP167 T02500106 56016
Loading
Personal Weather Stations






























Interactive Weather Map New forecast layout! Learn more

10-Day Weather Forecast

Advertisements
Track Severe Weather on mobile